Time;durP1;ratioP1;P1;durP2;ratioP2;P2;SDS_P1;SDS_P2;PMS_P1;PMS_P2;Temp;Humidity;BMP_temperature;BMP_pressure;BME280_temperature;BME280_humidity;BME280_pressure;Samples;Min_cycle;Max_cycle;Signal;HPM_P1;HPM_P2
2022/01/12 00:01:39;;;;;;;128.35;52.25;;;3.50;99.90;;;;;;5015984;28;20029;-75
2022/01/12 00:04:05;;;;;;;139.02;52.92;;;3.50;99.90;;;;;;5032063;28;20039;-75
2022/01/12 00:06:31;;;;;;;147.23;52.45;;;3.40;99.90;;;;;;5030269;28;20052;-75
2022/01/12 00:08:59;;;;;;;148.40;52.50;;;3.40;99.90;;;;;;5029460;28;20491;-75
2022/01/12 00:11:25;;;;;;;145.95;52.85;;;3.50;99.90;;;;;;5029410;28;20124;-75
2022/01/12 00:13:52;;;;;;;155.68;53.03;;;3.50;99.90;;;;;;5013337;28;20239;-75
2022/01/12 00:16:19;;;;;;;160.00;53.72;;;3.50;99.90;;;;;;5041506;28;20044;-75
2022/01/12 00:18:45;;;;;;;174.68;55.08;;;3.50;99.90;;;;;;5022595;28;20065;-75
2022/01/12 00:21:12;;;;;;;176.88;56.22;;;3.50;99.90;;;;;;5027978;28;20053;-75
2022/01/12 00:23:39;;;;;;;185.45;55.78;;;3.50;99.90;;;;;;5027519;28;20033;-75
2022/01/12 00:26:25;;;;;;;204.38;57.97;;;3.50;99.90;;;;;;5030831;28;20095;-75
2022/01/12 00:34:20;;;;;;;194.32;57.25;;;3.50;99.90;;;;;;5027879;28;20041;-75
2022/01/12 00:36:46;;;;;;;169.27;55.25;;;3.50;99.90;;;;;;5027825;28;20060;-75
2022/01/12 00:39:12;;;;;;;155.80;52.80;;;3.60;99.90;;;;;;5007978;28;20045;-75
2022/01/12 00:41:39;;;;;;;173.48;54.83;;;3.60;99.90;;;;;;5010454;28;20041;-75
2022/01/12 00:44:08;;;;;;;189.68;55.22;;;3.60;99.90;;;;;;5028269;28;20036;-75
2022/01/12 00:46:36;;;;;;;162.90;52.85;;;3.60;99.90;;;;;;5028462;28;20041;-75
2022/01/12 00:49:02;;;;;;;157.27;53.10;;;3.60;99.90;;;;;;5032495;28;20040;-74
2022/01/12 00:51:33;;;;;;;194.60;54.60;;;3.60;99.90;;;;;;5027645;28;20056;-74
2022/01/12 00:54:01;;;;;;;160.93;51.72;;;3.60;99.90;;;;;;5013221;28;20037;-75
2022/01/12 00:56:27;;;;;;;151.98;51.92;;;3.60;99.90;;;;;;5027738;28;20041;-75
2022/01/12 00:58:53;;;;;;;183.15;54.17;;;3.60;99.90;;;;;;5029884;28;20407;-75
2022/01/12 01:01:20;;;;;;;145.68;52.08;;;3.60;99.90;;;;;;5026894;28;20047;-74
2022/01/12 01:03:50;;;;;;;178.68;53.65;;;3.60;99.90;;;;;;5039693;28;20143;-74
2022/01/12 01:06:16;;;;;;;171.73;53.50;;;3.60;99.90;;;;;;5026564;28;20060;-75
2022/01/12 01:08:43;;;;;;;177.45;52.10;;;3.60;99.90;;;;;;5026842;28;20037;-75
2022/01/12 01:11:09;;;;;;;184.73;52.67;;;3.70;99.90;;;;;;5024326;28;20187;-75
2022/01/12 01:13:44;;;;;;;191.95;57.90;;;3.60;99.90;;;;;;4997644;28;20037;-75
2022/01/12 01:26:51;;;;;;;217.40;56.30;;;3.70;99.90;;;;;;5030158;28;20041;-75
2022/01/12 01:29:18;;;;;;;221.80;55.22;;;3.70;99.90;;;;;;5026497;28;20037;-75
2022/01/12 01:31:45;;;;;;;224.35;56.83;;;3.70;99.90;;;;;;5024282;28;20041;-75
2022/01/12 01:34:13;;;;;;;175.18;52.92;;;3.70;99.90;;;;;;5043873;28;20041;-75
2022/01/12 01:36:42;;;;;;;185.88;52.28;;;3.70;99.90;;;;;;5012102;28;20040;-75
2022/01/12 01:39:09;;;;;;;203.98;55.05;;;3.70;99.90;;;;;;5021137;28;20045;-75
2022/01/12 01:41:38;;;;;;;217.18;56.45;;;3.70;99.90;;;;;;5030047;28;20123;-75
2022/01/12 01:54:44;;;;;;;252.25;56.60;;;3.70;99.90;;;;;;5043241;28;20044;-76
2022/01/12 01:57:10;;;;;;;236.45;59.10;;;3.70;99.90;;;;;;5027520;28;20044;-76
2022/01/12 01:59:35;;;;;;;285.60;60.58;;;3.60;99.90;;;;;;5012226;28;20076;-76
2022/01/12 02:02:01;;;;;;;288.40;62.67;;;3.60;99.90;;;;;;5027537;28;20040;-75
2022/01/12 02:04:27;;;;;;;314.70;64.70;;;3.70;99.90;;;;;;5008927;28;20111;-75
2022/01/12 02:06:54;;;;;;;307.58;65.38;;;3.70;99.90;;;;;;5012772;28;20380;-76
2022/01/12 02:09:20;;;;;;;316.73;66.68;;;3.70;99.90;;;;;;5028464;28;20042;-76
2022/01/12 02:11:51;;;;;;;318.67;63.90;;;3.70;99.90;;;;;;5044230;28;20063;-76
2022/01/12 02:14:17;;;;;;;365.80;67.82;;;3.70;99.90;;;;;;5008348;28;20033;-76
2022/01/12 02:16:57;;;;;;;365.13;67.28;;;3.70;99.90;;;;;;5026099;28;20038;-76
2022/01/12 02:35:57;;;;;;;502.55;75.25;;;3.80;99.90;;;;;;5032907;28;20045;-76
2022/01/12 02:41:07;;;;;;;411.73;69.60;;;3.80;99.90;;;;;;5028729;28;20544;-75
2022/01/12 02:54:14;;;;;;;604.13;78.53;;;3.80;99.90;;;;;;5032270;28;20049;-75
2022/01/12 02:56:39;;;;;;;536.13;78.38;;;3.80;99.90;;;;;;5027226;28;20099;-75
2022/01/12 02:59:08;;;;;;;509.15;73.72;;;3.80;99.90;;;;;;5028712;28;20072;-75
2022/01/12 03:01:58;;;;;;;523.78;75.63;;;3.80;99.90;;;;;;5029598;28;20040;-76
2022/01/12 03:04:19;;;;;;;423.92;70.68;;;3.90;99.90;;;;;;5029774;28;20041;-75
2022/01/12 03:06:45;;;;;;;676.13;84.03;;;3.90;99.90;;;;;;5031366;28;20192;-75
2022/01/12 03:09:12;;;;;;;579.78;78.35;;;3.90;99.90;;;;;;5027638;28;20037;-75
2022/01/12 03:11:38;;;;;;;472.42;72.63;;;3.90;99.90;;;;;;5014791;28;20037;-75
2022/01/12 03:14:04;;;;;;;395.15;66.80;;;3.90;99.90;;;;;;5011811;28;20040;-75
2022/01/12 03:16:30;;;;;;;548.53;77.57;;;3.90;99.90;;;;;;5028393;28;20049;-75
2022/01/12 03:18:57;;;;;;;518.55;78.47;;;3.90;99.90;;;;;;5032209;28;20029;-75
2022/01/12 03:21:27;;;;;;;606.88;81.45;;;3.90;99.90;;;;;;5030121;28;20045;-75
2022/01/12 03:23:54;;;;;;;403.77;70.22;;;3.90;99.90;;;;;;5009173;28;20045;-75
2022/01/12 03:26:21;;;;;;;672.97;80.82;;;3.90;99.90;;;;;;5031580;28;20082;-75
2022/01/12 03:28:52;;;;;;;571.30;75.68;;;3.90;99.90;;;;;;5031500;28;20132;-75
2022/01/12 03:31:22;;;;;;;555.05;74.07;;;3.90;99.90;;;;;;5025870;28;20029;-75
2022/01/12 03:33:54;;;;;;;608.53;77.75;;;3.90;99.90;;;;;;5023745;28;20387;-75
2022/01/12 03:36:26;;;;;;;638.83;82.13;;;3.90;99.90;;;;;;5035352;28;20087;-75
2022/01/12 03:39:05;;;;;;;542.80;77.60;;;3.90;99.90;;;;;;5029845;28;20037;-76
2022/01/12 03:41:34;;;;;;;487.75;72.72;;;3.90;99.90;;;;;;5027626;28;20041;-76
2022/01/12 03:44:02;;;;;;;436.58;71.55;;;3.90;99.90;;;;;;5027864;28;20064;-76
2022/01/12 03:46:45;;;;;;;526.10;74.72;;;3.90;99.90;;;;;;5029315;28;20490;-76
2022/01/12 03:49:11;;;;;;;309.95;60.22;;;3.90;99.90;;;;;;5033919;28;20099;-76
2022/01/12 03:51:36;;;;;;;432.48;68.50;;;3.90;99.90;;;;;;5031009;28;20053;-76
2022/01/12 03:54:03;;;;;;;332.48;64.97;;;4.00;99.90;;;;;;5032764;28;20048;-76
2022/01/12 03:56:28;;;;;;;470.35;73.90;;;4.00;99.90;;;;;;5030493;28;20049;-76
2022/01/12 03:58:54;;;;;;;654.97;82.45;;;4.00;99.90;;;;;;5024548;28;20081;-75
2022/01/12 04:01:20;;;;;;;440.83;72.30;;;4.00;99.90;;;;;;5012191;28;20036;-76
2022/01/12 04:03:57;;;;;;;480.20;72.38;;;4.00;99.90;;;;;;5030169;28;20119;-75
2022/01/12 04:09:06;;;;;;;505.88;70.88;;;4.00;99.90;;;;;;5026336;28;20047;-75
2022/01/12 04:11:32;;;;;;;463.60;75.05;;;4.00;99.90;;;;;;5011111;28;20048;-75
2022/01/12 04:13:58;;;;;;;358.60;63.35;;;4.00;99.90;;;;;;5025717;28;20037;-76
2022/01/12 04:16:23;;;;;;;473.13;69.43;;;4.00;99.90;;;;;;5030341;28;20090;-76
2022/01/12 04:18:49;;;;;;;364.48;66.35;;;4.00;99.90;;;;;;5025442;28;20083;-76
2022/01/12 04:21:17;;;;;;;345.65;64.65;;;4.00;99.90;;;;;;5026901;28;20035;-76
2022/01/12 04:23:43;;;;;;;318.23;62.03;;;4.00;99.90;;;;;;5027474;28;20033;-76
2022/01/12 04:26:12;;;;;;;316.38;59.38;;;4.00;99.90;;;;;;5030044;28;20127;-76
2022/01/12 04:28:44;;;;;;;328.67;61.95;;;4.00;99.90;;;;;;5029253;28;20037;-76
2022/01/12 04:31:12;;;;;;;315.98;58.75;;;4.00;99.90;;;;;;5031469;28;20128;-76
2022/01/12 04:33:39;;;;;;;393.02;64.35;;;4.00;99.90;;;;;;5028236;28;20048;-75
2022/01/12 04:36:06;;;;;;;327.15;60.70;;;4.00;99.90;;;;;;5028085;28;20049;-76
2022/01/12 04:38:34;;;;;;;294.73;61.22;;;4.00;99.90;;;;;;5026711;28;20062;-76
2022/01/12 04:41:02;;;;;;;281.63;61.45;;;4.00;99.90;;;;;;5030218;28;20045;-76
2022/01/12 04:43:28;;;;;;;319.10;62.47;;;4.00;99.90;;;;;;5029110;28;20044;-76
2022/01/12 04:50:54;;;;;;;367.77;61.28;;;4.00;99.90;;;;;;5031877;28;20052;-75
2022/01/12 04:53:21;;;;;;;338.50;60.55;;;4.00;99.90;;;;;;5033000;28;20071;-75
2022/01/12 04:55:48;;;;;;;348.70;60.92;;;4.00;99.90;;;;;;5028117;28;20044;-76
2022/01/12 04:58:17;;;;;;;299.15;59.30;;;4.00;99.90;;;;;;5029156;28;20079;-76
2022/01/12 05:00:45;;;;;;;407.98;61.90;;;4.00;99.90;;;;;;5047457;28;20032;-75
2022/01/12 05:13:51;;;;;;;514.35;47.75;;;3.80;99.90;;;;;;5031396;28;20049;-75
2022/01/12 05:16:19;;;;;;;837.65;55.95;;;3.70;99.90;;;;;;5028297;28;20136;-76
2022/01/12 05:18:46;;;;;;;1014.92;64.47;;;3.60;99.90;;;;;;5020619;28;20037;-76
2022/01/12 05:21:12;;;;;;;673.25;55.10;;;3.60;99.90;;;;;;5026767;28;20487;-76
2022/01/12 05:23:38;;;;;;;1182.22;74.18;;;3.50;99.90;;;;;;5027566;28;20091;-75
2022/01/12 05:26:05;;;;;;;698.72;44.10;;;3.40;99.90;;;;;;5041100;28;20037;-75
2022/01/12 05:28:31;;;;;;;693.50;48.47;;;3.30;99.90;;;;;;5027093;28;20041;-76
2022/01/12 05:30:58;;;;;;;491.38;44.92;;;3.10;99.90;;;;;;5027693;28;20037;-77
2022/01/12 05:33:25;;;;;;;522.83;47.60;;;3.10;99.90;;;;;;5028123;28;20080;-76
2022/01/12 05:35:53;;;;;;;432.17;45.28;;;3.00;99.90;;;;;;5024586;28;20044;-76
2022/01/12 05:38:19;;;;;;;858.95;60.97;;;3.00;99.90;;;;;;5023597;28;20092;-76
2022/01/12 05:40:48;;;;;;;637.53;50.70;;;3.00;99.90;;;;;;5026552;28;20037;-75
2022/01/12 05:43:16;;;;;;;675.25;49.45;;;3.00;99.90;;;;;;5022243;28;20551;-76
2022/01/12 05:45:44;;;;;;;635.13;48.05;;;2.90;99.90;;;;;;5025418;28;20028;-76
2022/01/12 05:50:38;;;;;;;679.85;43.13;;;2.90;99.90;;;;;;5030014;28;20157;-76
2022/01/12 05:53:04;;;;;;;898.33;54.85;;;2.90;99.90;;;;;;5028137;28;20033;-76
2022/01/12 05:55:30;;;;;;;509.98;36.25;;;2.80;99.90;;;;;;5008457;28;20044;-75
2022/01/12 05:57:56;;;;;;;350.98;29.00;;;2.80;99.90;;;;;;5026644;28;20041;-76
2022/01/12 06:00:23;;;;;;;476.17;37.47;;;2.80;99.90;;;;;;5028600;28;20411;-75
2022/01/12 06:02:49;;;;;;;703.45;43.20;;;2.70;99.90;;;;;;5024442;28;20037;-75
2022/01/12 06:05:18;;;;;;;693.20;42.92;;;2.80;99.90;;;;;;5028778;28;20048;-75
2022/01/12 06:07:45;;;;;;;731.53;48.58;;;2.80;99.90;;;;;;5027372;28;20029;-75
2022/01/12 06:10:11;;;;;;;590.92;47.72;;;2.80;99.90;;;;;;5024984;28;20132;-75
2022/01/12 06:12:41;;;;;;;630.30;50.65;;;2.60;99.90;;;;;;5012381;28;20511;-76
2022/01/12 06:15:07;;;;;;;597.92;48.80;;;2.60;99.90;;;;;;5026829;28;20048;-75
2022/01/12 06:17:33;;;;;;;433.83;43.05;;;2.60;99.90;;;;;;5026271;28;20036;-76
2022/01/12 06:20:00;;;;;;;561.20;42.28;;;2.50;99.90;;;;;;5010163;28;20034;-75
2022/01/12 06:22:25;;;;;;;448.63;40.10;;;2.50;99.90;;;;;;5026213;28;20037;-75
2022/01/12 06:24:51;;;;;;;132.07;33.00;;;2.40;99.90;;;;;;5009583;28;20029;-75
2022/01/12 06:27:20;;;;;;;187.02;40.55;;;2.40;99.90;;;;;;5027558;28;20056;-75
2022/01/12 06:30:02;;;;;;;218.55;43.38;;;2.40;99.90;;;;;;5009408;28;20037;-75
2022/01/12 06:32:29;;;;;;;331.30;45.35;;;2.50;99.90;;;;;;5032184;28;20047;-75
2022/01/12 06:34:55;;;;;;;501.02;55.00;;;2.50;99.90;;;;;;5008375;28;20041;-76
2022/01/12 06:37:20;;;;;;;563.85;55.78;;;2.60;99.90;;;;;;5028654;28;20073;-75
2022/01/12 06:39:46;;;;;;;297.42;46.33;;;2.60;99.90;;;;;;5028069;28;20483;-75
2022/01/12 06:42:12;;;;;;;496.02;53.80;;;2.60;99.90;;;;;;5024340;28;20029;-75
2022/01/12 06:44:37;;;;;;;600.00;44.67;;;2.60;99.90;;;;;;5028945;28;20061;-76
2022/01/12 06:47:04;;;;;;;484.60;39.92;;;2.60;99.90;;;;;;5029360;28;20461;-76
2022/01/12 06:49:30;;;;;;;952.53;57.67;;;2.50;99.90;;;;;;5022078;28;20040;-76
2022/01/12 06:51:59;;;;;;;767.15;49.88;;;2.60;99.90;;;;;;5027521;28;20029;-76
2022/01/12 06:54:25;;;;;;;566.92;37.67;;;2.50;99.90;;;;;;5022450;28;20073;-76
2022/01/12 06:56:51;;;;;;;779.00;47.10;;;2.40;99.90;;;;;;5024607;28;20036;-76
2022/01/12 06:59:17;;;;;;;600.08;33.67;;;2.30;99.90;;;;;;5027504;28;20132;-76
2022/01/12 07:01:44;;;;;;;412.55;28.42;;;2.20;99.90;;;;;;5010985;28;20402;-76
2022/01/12 07:04:10;;;;;;;369.67;26.10;;;2.10;99.90;;;;;;5030436;28;20106;-76
2022/01/12 07:06:35;;;;;;;329.40;22.08;;;2.10;99.90;;;;;;5025913;28;20953;-76
2022/01/12 07:09:02;;;;;;;267.30;30.70;;;2.00;99.90;;;;;;5026163;28;20045;-76
2022/01/12 07:11:28;;;;;;;453.20;32.33;;;2.00;99.90;;;;;;5023986;28;20045;-76
2022/01/12 07:13:54;;;;;;;230.00;22.70;;;1.90;99.90;;;;;;5031270;28;20445;-76
2022/01/12 07:16:19;;;;;;;218.52;23.27;;;1.90;99.90;;;;;;5075320;22;20505;-72
2022/01/12 07:18:45;;;;;;;570.67;45.50;;;1.90;99.90;;;;;;5016524;28;20459;-72
2022/01/12 07:21:11;;;;;;;169.88;31.02;;;1.90;99.90;;;;;;5030546;28;20084;-72
2022/01/12 07:23:37;;;;;;;462.10;41.72;;;1.90;99.90;;;;;;5028412;28;20495;-72
2022/01/12 07:26:04;;;;;;;402.88;36.60;;;2.00;99.90;;;;;;5038614;28;20087;-72
2022/01/12 07:28:38;;;;;;;402.92;37.25;;;2.00;99.90;;;;;;5013158;28;20076;-72
2022/01/12 07:31:04;;;;;;;229.48;29.95;;;2.00;99.90;;;;;;4980410;28;20044;-72
2022/01/12 07:33:30;;;;;;;562.00;42.88;;;1.90;99.90;;;;;;5033913;28;20034;-72
2022/01/12 07:35:55;;;;;;;450.83;38.60;;;2.00;99.90;;;;;;5034288;28;20375;-73
2022/01/12 07:38:21;;;;;;;245.80;30.08;;;1.90;99.90;;;;;;5028399;28;20482;-72
2022/01/12 07:40:47;;;;;;;525.72;43.65;;;1.90;99.90;;;;;;5031308;28;20494;-72
2022/01/12 07:43:12;;;;;;;538.17;46.30;;;1.90;99.90;;;;;;5035521;28;20037;-73
2022/01/12 07:45:38;;;;;;;247.02;32.03;;;1.90;99.90;;;;;;5024002;28;20423;-73
2022/01/12 07:48:04;;;;;;;299.40;43.78;;;1.90;99.90;;;;;;5028886;28;20540;-73
2022/01/12 07:50:30;;;;;;;365.73;39.83;;;1.90;99.90;;;;;;5027069;28;20471;-73
2022/01/12 07:52:56;;;;;;;291.42;33.72;;;1.90;99.90;;;;;;5031502;28;20095;-73
2022/01/12 07:55:23;;;;;;;243.20;30.58;;;1.90;99.90;;;;;;5012635;28;20476;-73
2022/01/12 07:57:50;;;;;;;396.52;40.33;;;1.90;99.90;;;;;;5029022;28;20060;-73
2022/01/12 08:00:16;;;;;;;460.02;42.95;;;1.90;99.90;;;;;;5037625;28;20194;-73
2022/01/12 08:02:42;;;;;;;280.75;32.35;;;1.90;99.90;;;;;;5028229;28;20176;-73
2022/01/12 08:05:09;;;;;;;240.55;30.10;;;1.90;99.90;;;;;;5024182;28;20125;-74
2022/01/12 08:07:36;;;;;;;233.13;31.60;;;2.00;99.90;;;;;;5027031;28;20073;-73
2022/01/12 08:10:04;;;;;;;269.35;31.63;;;1.90;99.90;;;;;;5026932;28;20095;-73
2022/01/12 08:12:30;;;;;;;216.65;30.58;;;1.90;99.90;;;;;;5027866;28;20099;-73
2022/01/12 08:14:56;;;;;;;452.67;40.70;;;1.90;99.90;;;;;;5012073;28;20491;-73
2022/01/12 08:17:21;;;;;;;281.92;39.97;;;1.80;99.90;;;;;;5024739;28;20500;-73
2022/01/12 08:19:47;;;;;;;96.90;30.98;;;1.90;99.90;;;;;;5029434;28;20599;-73
2022/01/12 08:22:13;;;;;;;150.30;34.67;;;1.90;99.90;;;;;;5030525;28;20033;-73
2022/01/12 08:24:39;;;;;;;81.25;29.48;;;1.90;99.90;;;;;;5025208;28;20045;-73
2022/01/12 08:27:06;;;;;;;102.03;32.20;;;2.00;99.90;;;;;;5028531;28;20488;-73
2022/01/12 08:29:31;;;;;;;116.43;32.88;;;2.00;99.90;;;;;;5030939;28;20037;-73
2022/01/12 08:31:57;;;;;;;105.97;33.70;;;2.10;99.90;;;;;;5033504;28;20530;-73
2022/01/12 08:34:23;;;;;;;129.52;34.42;;;2.10;99.90;;;;;;5026323;28;20526;-73
2022/01/12 08:36:49;;;;;;;103.93;33.58;;;2.20;99.90;;;;;;5029894;28;20491;-73
2022/01/12 08:39:14;;;;;;;136.00;34.30;;;2.30;99.90;;;;;;5030097;28;20077;-73
2022/01/12 08:41:40;;;;;;;208.38;39.17;;;2.30;99.90;;;;;;5029071;28;20480;-71
2022/01/12 08:44:08;;;;;;;161.73;38.10;;;2.30;99.90;;;;;;5039984;28;20498;-73
2022/01/12 08:46:35;;;;;;;178.10;36.67;;;2.40;99.90;;;;;;5028752;28;20091;-73
2022/01/12 08:49:01;;;;;;;168.20;35.17;;;2.40;99.90;;;;;;5013671;28;20076;-73
2022/01/12 08:51:27;;;;;;;93.95;30.55;;;2.40;99.90;;;;;;5029254;28;20476;-73
2022/01/12 08:53:52;;;;;;;133.60;28.95;;;2.40;99.90;;;;;;5029655;28;20057;-73
2022/01/12 08:56:19;;;;;;;203.40;31.60;;;2.50;99.90;;;;;;5028688;28;20519;-73
2022/01/12 08:58:46;;;;;;;359.30;41.22;;;2.50;99.90;;;;;;5029164;28;20193;-73
2022/01/12 09:01:12;;;;;;;365.35;37.17;;;2.40;99.90;;;;;;5036242;28;20033;-73
2022/01/12 09:03:39;;;;;;;477.05;46.35;;;2.50;99.90;;;;;;5025206;28;20372;-73
2022/01/12 09:06:05;;;;;;;520.45;46.22;;;2.60;99.90;;;;;;5027970;28;20109;-73
2022/01/12 09:08:34;;;;;;;596.85;52.38;;;2.70;99.90;;;;;;5022948;28;20049;-73
2022/01/12 09:11:00;;;;;;;346.42;41.38;;;2.70;99.90;;;;;;5028521;28;20104;-73
2022/01/12 09:13:25;;;;;;;332.48;42.95;;;2.80;99.90;;;;;;5009011;28;20553;-73
2022/01/12 09:15:51;;;;;;;246.50;41.25;;;2.90;99.90;;;;;;5029619;28;20025;-73
2022/01/12 09:18:18;;;;;;;245.07;41.20;;;3.00;99.90;;;;;;5025105;28;20141;-73
2022/01/12 09:20:44;;;;;;;264.55;42.05;;;3.10;99.90;;;;;;5023313;28;20037;-73
2022/01/12 09:23:10;;;;;;;246.02;42.35;;;3.20;99.90;;;;;;5024512;28;20044;-73
2022/01/12 09:25:39;;;;;;;263.90;47.55;;;3.30;99.90;;;;;;5027734;28;20037;-73
2022/01/12 09:28:05;;;;;;;204.90;42.15;;;3.40;99.90;;;;;;5025057;28;20034;-73
2022/01/12 09:30:31;;;;;;;255.45;47.05;;;3.50;99.90;;;;;;5020690;28;20124;-73
2022/01/12 09:32:58;;;;;;;192.95;50.15;;;3.60;99.90;;;;;;5035164;28;20072;-73
2022/01/12 09:35:24;;;;;;;169.50;42.20;;;3.80;99.90;;;;;;5027703;28;20084;-74
2022/01/12 09:37:50;;;;;;;195.88;43.33;;;3.90;99.90;;;;;;5028500;28;20073;-74
2022/01/12 09:40:15;;;;;;;208.10;43.20;;;4.10;99.90;;;;;;5028738;28;20033;-74
2022/01/12 09:42:47;;;;;;;179.35;41.17;;;4.10;99.90;;;;;;5020339;28;20541;-74
2022/01/12 09:45:18;;;;;;;157.90;38.25;;;4.20;99.90;;;;;;5027484;28;20083;-74
2022/01/12 09:47:45;;;;;;;157.52;38.20;;;4.30;99.90;;;;;;5021820;28;20107;-74
2022/01/12 09:50:14;;;;;;;164.32;39.13;;;4.30;99.90;;;;;;5031496;28;20045;-74
2022/01/12 09:52:39;;;;;;;144.02;37.35;;;4.40;99.90;;;;;;5028276;28;20060;-73
2022/01/12 09:55:05;;;;;;;153.10;38.70;;;4.50;99.90;;;;;;5030138;28;20460;-73
2022/01/12 09:57:31;;;;;;;153.43;34.45;;;4.50;99.90;;;;;;5009468;28;20041;-73
2022/01/12 09:59:57;;;;;;;150.35;32.90;;;4.60;99.90;;;;;;5029591;28;20495;-73
2022/01/12 10:02:22;;;;;;;145.95;33.63;;;4.60;99.90;;;;;;5025958;28;20132;-73
2022/01/12 10:05:00;;;;;;;157.75;35.45;;;4.70;99.90;;;;;;5024938;28;20502;-73
2022/01/12 10:07:25;;;;;;;144.57;34.35;;;4.70;99.90;;;;;;5027298;28;20033;-74
2022/01/12 10:09:56;;;;;;;139.20;34.03;;;4.80;99.90;;;;;;5030119;28;20041;-73
2022/01/12 10:12:22;;;;;;;139.93;32.78;;;4.80;99.90;;;;;;5026874;28;20042;-73
2022/01/12 10:14:54;;;;;;;119.65;31.75;;;4.80;99.90;;;;;;5016657;28;20048;-73
2022/01/12 10:17:31;;;;;;;130.35;30.95;;;4.80;99.90;;;;;;5024287;28;20104;-73
2022/01/12 10:20:07;;;;;;;121.93;30.05;;;4.90;99.90;;;;;;5028456;28;20077;-73
2022/01/12 10:22:32;;;;;;;110.68;29.00;;;4.90;99.90;;;;;;5017936;28;20037;-73
2022/01/12 10:25:01;;;;;;;106.40;26.75;;;5.00;99.90;;;;;;5029592;28;20533;-73
2022/01/12 10:27:28;;;;;;;107.82;27.38;;;5.00;99.90;;;;;;5019619;28;20045;-73
2022/01/12 10:30:01;;;;;;;99.90;25.33;;;5.10;99.90;;;;;;5025685;28;20094;-74
2022/01/12 10:32:26;;;;;;;98.32;24.70;;;5.10;99.90;;;;;;5028881;28;20099;-73
2022/01/12 10:34:52;;;;;;;95.63;24.45;;;5.10;99.90;;;;;;5023681;28;20483;-72
2022/01/12 10:37:27;;;;;;;101.50;23.17;;;5.20;99.90;;;;;;5025913;28;20495;-73
2022/01/12 10:39:56;;;;;;;86.95;20.98;;;5.20;99.90;;;;;;5009292;28;20042;-80
2022/01/12 10:42:27;;;;;;;85.85;20.60;;;5.30;99.90;;;;;;5027044;28;20088;-78
2022/01/12 10:44:56;;;;;;;92.60;20.52;;;5.30;99.90;;;;;;5000373;28;20033;-78
2022/01/12 10:47:24;;;;;;;89.75;20.92;;;5.40;99.90;;;;;;5014248;28;20041;-78
2022/01/12 10:49:58;;;;;;;70.82;18.83;;;5.40;99.90;;;;;;5020363;28;20045;-78
2022/01/12 10:52:34;;;;;;;79.80;19.75;;;5.50;99.90;;;;;;5030659;28;20049;-78
2022/01/12 10:55:13;;;;;;;51.42;12.90;;;5.50;99.90;;;;;;5026491;28;20119;-78
2022/01/12 10:57:42;;;;;;;72.70;15.93;;;5.50;99.90;;;;;;5037840;28;20046;-78
2022/01/12 11:00:21;;;;;;;75.35;17.80;;;5.60;99.90;;;;;;5024927;28;20045;-78
2022/01/12 11:02:56;;;;;;;67.63;17.75;;;5.50;99.90;;;;;;5031224;28;20037;-77
2022/01/12 11:05:24;;;;;;;61.95;15.35;;;5.60;99.90;;;;;;5029929;28;20124;-77
2022/01/12 11:07:51;;;;;;;86.88;18.52;;;5.50;99.90;;;;;;5013682;28;20052;-76
2022/01/12 11:10:18;;;;;;;71.97;17.73;;;5.60;99.90;;;;;;5024795;28;20128;-73
2022/01/12 11:12:44;;;;;;;75.68;14.80;;;5.60;99.90;;;;;;5026202;28;20045;-72
2022/01/12 11:15:13;;;;;;;67.70;13.10;;;5.60;99.90;;;;;;5028343;28;20124;-72
2022/01/12 11:17:39;;;;;;;64.97;14.18;;;5.70;99.90;;;;;;5026676;28;20152;-72
2022/01/12 11:20:19;;;;;;;68.13;16.17;;;5.70;99.90;;;;;;5027717;28;20037;-72
2022/01/12 11:23:11;;;;;;;64.78;16.25;;;5.70;99.90;;;;;;5023723;28;20033;-72
2022/01/12 11:25:39;;;;;;;65.70;16.42;;;5.70;99.90;;;;;;5026890;28;20392;-72
2022/01/12 11:28:23;;;;;;;62.60;15.80;;;5.70;99.90;;;;;;5025989;28;20049;-72
2022/01/12 11:30:52;;;;;;;68.43;15.98;;;5.70;99.90;;;;;;5042576;28;20164;-72
2022/01/12 11:33:33;;;;;;;65.20;16.77;;;5.80;99.90;;;;;;5025083;28;20399;-72
2022/01/12 11:36:28;;;;;;;67.30;17.27;;;5.80;99.90;;;;;;5024624;28;20045;-72
2022/01/12 11:39:10;;;;;;;63.25;15.90;;;5.70;99.90;;;;;;5007271;28;20050;-72
2022/01/12 11:41:40;;;;;;;65.18;16.48;;;5.70;99.90;;;;;;5019557;28;20171;-72
2022/01/12 11:44:09;;;;;;;71.35;16.70;;;5.70;99.90;;;;;;5027206;28;20108;-72
2022/01/12 11:46:55;;;;;;;67.55;16.75;;;5.70;99.90;;;;;;5028190;28;20045;-72
2022/01/12 11:49:28;;;;;;;74.72;16.85;;;5.60;99.90;;;;;;5026082;28;20054;-72
2022/01/12 11:51:54;;;;;;;63.70;16.23;;;5.70;99.90;;;;;;5025266;28;20083;-72
2022/01/12 11:54:36;;;;;;;68.30;16.08;;;5.60;99.90;;;;;;5022394;28;20119;-72
2022/01/12 11:57:10;;;;;;;72.68;16.65;;;5.70;99.90;;;;;;5026589;28;20134;-72
2022/01/12 11:59:56;;;;;;;69.13;15.85;;;5.70;99.90;;;;;;5024689;28;20671;-70
2022/01/12 12:02:36;;;;;;;67.57;14.95;;;5.70;99.90;;;;;;5025762;28;20092;-73
2022/01/12 12:05:08;;;;;;;75.38;14.77;;;5.70;99.90;;;;;;5024766;28;20388;-73
2022/01/12 12:07:47;;;;;;;81.00;15.95;;;5.70;99.90;;;;;;5025040;28;20108;-72
2022/01/12 12:10:16;;;;;;;66.90;13.65;;;5.70;99.90;;;;;;5006872;28;20045;-72
2022/01/12 12:12:41;;;;;;;67.45;14.40;;;5.80;99.90;;;;;;5025842;28;20034;-72
2022/01/12 12:15:09;;;;;;;65.32;14.18;;;5.70;99.90;;;;;;5024405;28;20484;-72
2022/01/12 12:17:37;;;;;;;64.13;14.00;;;5.60;99.90;;;;;;5024546;28;20128;-72
2022/01/12 12:20:06;;;;;;;77.18;15.48;;;5.70;99.90;;;;;;5029652;28;20037;-72
2022/01/12 12:22:34;;;;;;;66.30;16.05;;;5.70;99.90;;;;;;5023286;28;20033;-72
2022/01/12 12:25:12;;;;;;;73.18;17.98;;;5.80;99.90;;;;;;5007423;28;20439;-72
2022/01/12 12:27:40;;;;;;;74.55;17.58;;;5.80;99.90;;;;;;5009022;28;20033;-72
2022/01/12 12:30:10;;;;;;;81.90;18.58;;;5.80;99.90;;;;;;5025311;28;20041;-73
2022/01/12 12:32:38;;;;;;;68.15;17.10;;;5.80;99.90;;;;;;5024070;28;20139;-73
2022/01/12 12:35:32;;;;;;;60.20;17.25;;;5.80;99.90;;;;;;5023787;28;20057;-72
2022/01/12 12:38:03;;;;;;;57.90;15.48;;;5.80;99.90;;;;;;5001278;28;20144;-73
2022/01/12 12:40:30;;;;;;;48.05;14.88;;;5.80;99.90;;;;;;5022116;28;20037;-72
2022/01/12 12:43:15;;;;;;;59.60;16.35;;;5.80;99.90;;;;;;5025460;28;20037;-72
2022/01/12 12:45:46;;;;;;;50.60;15.27;;;5.70;99.90;;;;;;5024132;28;20064;-73
2022/01/12 12:48:21;;;;;;;49.92;16.13;;;5.80;99.90;;;;;;5021501;28;20038;-73
2022/01/12 12:50:53;;;;;;;52.75;16.45;;;5.70;99.90;;;;;;5024569;28;20034;-73
2022/01/12 12:53:25;;;;;;;56.00;17.40;;;5.70;99.90;;;;;;5021025;28;20041;-72
2022/01/12 12:55:51;;;;;;;46.78;16.92;;;5.60;99.90;;;;;;5024627;28;20038;-73
2022/01/12 12:58:16;;;;;;;60.22;18.33;;;5.60;99.90;;;;;;5006167;28;20462;-73
2022/01/12 13:00:42;;;;;;;61.38;18.58;;;5.60;99.90;;;;;;5008471;28;20399;-73
2022/01/12 13:03:08;;;;;;;53.13;17.77;;;5.50;99.90;;;;;;5023349;28;20391;-73
2022/01/12 13:05:43;;;;;;;42.38;15.15;;;5.50;99.90;;;;;;5024046;28;20445;-73
2022/01/12 13:08:10;;;;;;;46.03;15.77;;;5.40;99.90;;;;;;5005602;28;20042;-73
2022/01/12 13:10:37;;;;;;;42.22;15.40;;;5.40;99.90;;;;;;5022575;28;20115;-73
2022/01/12 13:13:08;;;;;;;52.25;14.75;;;5.40;99.90;;;;;;5028449;28;20045;-73
2022/01/12 13:15:37;;;;;;;48.15;15.40;;;5.40;99.90;;;;;;5022630;28;20033;-74
2022/01/12 13:18:03;;;;;;;54.67;15.07;;;5.40;99.90;;;;;;5007097;28;20124;-73
2022/01/12 13:23:18;;;;;;;43.13;14.35;;;5.30;99.90;;;;;;5022387;28;21892;-74
2022/01/12 13:25:44;;;;;;;49.95;15.00;;;5.30;99.90;;;;;;5023531;28;20037;-73
2022/01/12 13:28:10;;;;;;;52.17;15.65;;;5.20;99.90;;;;;;5021976;28;20132;-74
2022/01/12 13:30:47;;;;;;;52.78;16.05;;;5.20;99.90;;;;;;5020101;28;20506;-74
2022/01/12 13:33:13;;;;;;;54.45;16.67;;;5.20;99.90;;;;;;5023420;28;20033;-73
2022/01/12 13:35:39;;;;;;;49.92;17.23;;;5.20;99.90;;;;;;5023823;28;20080;-74
2022/01/12 13:38:06;;;;;;;60.00;18.60;;;5.10;99.90;;;;;;5021916;28;20069;-73
2022/01/12 13:40:37;;;;;;;69.40;21.25;;;5.10;99.90;;;;;;5023393;28;20091;-73
2022/01/12 13:43:05;;;;;;;59.28;18.15;;;5.10;99.90;;;;;;5025852;28;20037;-74
2022/01/12 13:45:45;;;;;;;61.72;17.65;;;5.20;99.90;;;;;;5022885;28;20503;-74
2022/01/12 13:48:16;;;;;;;62.17;17.20;;;5.20;99.90;;;;;;5021793;28;20052;-74
2022/01/12 13:50:52;;;;;;;60.30;17.50;;;5.20;99.90;;;;;;5023049;28;20033;-73
2022/01/12 13:53:19;;;;;;;73.05;19.00;;;5.30;99.90;;;;;;5003681;28;20041;-74
2022/01/12 13:55:54;;;;;;;61.38;18.25;;;5.30;99.90;;;;;;5000567;28;20034;-74
2022/01/12 13:58:24;;;;;;;72.40;19.25;;;5.30;99.90;;;;;;5022701;28;20056;-73